Wahkon, Minnesota
Current Conditions -  °F | °C
As of 12:45 PM on Tuesday 27 Jan 2015 (Local Time) from KJMR Reporting Station
Overcast Overcast  
Wind Chill: 27°   Ceiling: 1700
Heat Index: 32°   Visibility: 10mi
Dew Point: 25°   Wind: 5mph
Humidity: 75%   Direction: 150°SSE
Pressure: 30.17"   Gusts: NA
Location:  46.12°N, 93.52°W
Report Text: KJMR 271845Z AUTO 15004KT 10SM OVC017 00/M04 A3017 RMK AO2
Loading
Personal Weather Stations






























Interactive Weather Map New forecast layout! Learn more

10-Day Weather Forecast

Advertisements
Track Severe Weather on mobile